sensor_id;sensor_type;location;lat;lon;timestamp;P1;durP1;ratioP1;P2;durP2;ratioP2
80675;SDS011;70041;46.088;18.268;2023-06-10T00:01:18;10.70;;;4.23;;
80675;SDS011;70041;46.088;18.268;2023-06-10T00:03:44;7.30;;;4.07;;
80675;SDS011;70041;46.088;18.268;2023-06-10T00:06:09;6.97;;;3.80;;
80675;SDS011;70041;46.088;18.268;2023-06-10T00:08:35;8.93;;;4.25;;
80675;SDS011;70041;46.088;18.268;2023-06-10T00:11:02;8.20;;;4.43;;
80675;SDS011;70041;46.088;18.268;2023-06-10T00:13:28;9.35;;;4.30;;
80675;SDS011;70041;46.088;18.268;2023-06-10T00:15:53;8.13;;;4.37;;
80675;SDS011;70041;46.088;18.268;2023-06-10T00:18:18;8.87;;;4.87;;
80675;SDS011;70041;46.088;18.268;2023-06-10T00:20:47;8.40;;;4.78;;
80675;SDS011;70041;46.088;18.268;2023-06-10T00:23:13;10.50;;;5.25;;
80675;SDS011;70041;46.088;18.268;2023-06-10T00:25:39;8.50;;;4.83;;
80675;SDS011;70041;46.088;18.268;2023-06-10T00:28:05;9.52;;;5.07;;
80675;SDS011;70041;46.088;18.268;2023-06-10T00:30:30;8.60;;;5.00;;
80675;SDS011;70041;46.088;18.268;2023-06-10T00:32:55;8.83;;;4.97;;
80675;SDS011;70041;46.088;18.268;2023-06-10T00:35:21;11.07;;;5.67;;
80675;SDS011;70041;46.088;18.268;2023-06-10T00:37:46;10.90;;;5.22;;
80675;SDS011;70041;46.088;18.268;2023-06-10T00:40:12;10.23;;;5.70;;
80675;SDS011;70041;46.088;18.268;2023-06-10T00:42:37;13.37;;;5.60;;
80675;SDS011;70041;46.088;18.268;2023-06-10T00:45:03;10.87;;;5.80;;
80675;SDS011;70041;46.088;18.268;2023-06-10T00:47:29;10.20;;;5.63;;
80675;SDS011;70041;46.088;18.268;2023-06-10T00:49:56;9.85;;;5.03;;
80675;SDS011;70041;46.088;18.268;2023-06-10T00:52:22;11.33;;;6.17;;
80675;SDS011;70041;46.088;18.268;2023-06-10T00:54:52;9.95;;;5.50;;
80675;SDS011;70041;46.088;18.268;2023-06-10T00:57:17;8.60;;;5.13;;
80675;SDS011;70041;46.088;18.268;2023-06-10T00:59:45;10.70;;;5.15;;
80675;SDS011;70041;46.088;18.268;2023-06-10T01:02:12;9.50;;;5.15;;
80675;SDS011;70041;46.088;18.268;2023-06-10T01:04:38;10.40;;;5.65;;
80675;SDS011;70041;46.088;18.268;2023-06-10T01:07:10;11.33;;;5.53;;
80675;SDS011;70041;46.088;18.268;2023-06-10T01:09:42;10.75;;;5.53;;
80675;SDS011;70041;46.088;18.268;2023-06-10T01:15:13;9.50;;;5.35;;
80675;SDS011;70041;46.088;18.268;2023-06-10T01:17:55;9.43;;;5.50;;
80675;SDS011;70041;46.088;18.268;2023-06-10T01:20:23;10.00;;;5.15;;
80675;SDS011;70041;46.088;18.268;2023-06-10T01:22:49;10.93;;;5.93;;
80675;SDS011;70041;46.088;18.268;2023-06-10T01:25:16;10.13;;;5.60;;
80675;SDS011;70041;46.088;18.268;2023-06-10T01:27:42;12.38;;;5.95;;
80675;SDS011;70041;46.088;18.268;2023-06-10T01:30:11;10.52;;;5.35;;
80675;SDS011;70041;46.088;18.268;2023-06-10T01:32:43;10.98;;;6.13;;
80675;SDS011;70041;46.088;18.268;2023-06-10T01:35:13;9.60;;;5.75;;
80675;SDS011;70041;46.088;18.268;2023-06-10T01:37:40;9.57;;;5.35;;
80675;SDS011;70041;46.088;18.268;2023-06-10T01:40:10;12.63;;;5.57;;
80675;SDS011;70041;46.088;18.268;2023-06-10T01:42:37;10.27;;;5.60;;
80675;SDS011;70041;46.088;18.268;2023-06-10T01:45:03;9.25;;;5.50;;
80675;SDS011;70041;46.088;18.268;2023-06-10T01:47:29;9.57;;;5.27;;
80675;SDS011;70041;46.088;18.268;2023-06-10T01:49:55;11.85;;;5.78;;
80675;SDS011;70041;46.088;18.268;2023-06-10T01:52:20;11.63;;;5.20;;
80675;SDS011;70041;46.088;18.268;2023-06-10T01:54:46;9.63;;;5.37;;
80675;SDS011;70041;46.088;18.268;2023-06-10T01:57:11;8.67;;;4.80;;
80675;SDS011;70041;46.088;18.268;2023-06-10T01:59:36;10.65;;;5.43;;
80675;SDS011;70041;46.088;18.268;2023-06-10T02:02:03;12.17;;;6.07;;
80675;SDS011;70041;46.088;18.268;2023-06-10T02:04:29;9.00;;;5.57;;
80675;SDS011;70041;46.088;18.268;2023-06-10T02:06:55;9.90;;;5.50;;
80675;SDS011;70041;46.088;18.268;2023-06-10T02:09:20;11.90;;;5.70;;
80675;SDS011;70041;46.088;18.268;2023-06-10T02:11:47;11.48;;;5.53;;
80675;SDS011;70041;46.088;18.268;2023-06-10T02:14:13;9.70;;;5.57;;
80675;SDS011;70041;46.088;18.268;2023-06-10T02:16:39;10.80;;;6.13;;
80675;SDS011;70041;46.088;18.268;2023-06-10T02:19:04;12.07;;;6.10;;
80675;SDS011;70041;46.088;18.268;2023-06-10T02:21:31;10.25;;;6.40;;
80675;SDS011;70041;46.088;18.268;2023-06-10T02:23:57;12.38;;;6.93;;
80675;SDS011;70041;46.088;18.268;2023-06-10T02:26:22;12.20;;;6.67;;
80675;SDS011;70041;46.088;18.268;2023-06-10T02:28:50;11.82;;;6.68;;
80675;SDS011;70041;46.088;18.268;2023-06-10T02:31:17;11.83;;;6.13;;
80675;SDS011;70041;46.088;18.268;2023-06-10T02:33:43;12.90;;;6.68;;
80675;SDS011;70041;46.088;18.268;2023-06-10T02:36:09;11.85;;;6.50;;
80675;SDS011;70041;46.088;18.268;2023-06-10T02:38:38;11.95;;;6.53;;
80675;SDS011;70041;46.088;18.268;2023-06-10T02:41:05;11.82;;;6.30;;
80675;SDS011;70041;46.088;18.268;2023-06-10T02:43:30;11.87;;;6.50;;
80675;SDS011;70041;46.088;18.268;2023-06-10T02:45:55;13.13;;;6.43;;
80675;SDS011;70041;46.088;18.268;2023-06-10T02:48:23;12.02;;;7.00;;
80675;SDS011;70041;46.088;18.268;2023-06-10T02:50:49;13.93;;;7.65;;
80675;SDS011;70041;46.088;18.268;2023-06-10T02:53:14;11.65;;;7.25;;
80675;SDS011;70041;46.088;18.268;2023-06-10T02:55:40;12.73;;;7.97;;
80675;SDS011;70041;46.088;18.268;2023-06-10T02:58:05;12.05;;;7.18;;
80675;SDS011;70041;46.088;18.268;2023-06-10T03:00:32;9.82;;;6.13;;
80675;SDS011;70041;46.088;18.268;2023-06-10T03:02:58;12.97;;;6.03;;
80675;SDS011;70041;46.088;18.268;2023-06-10T03:05:27;10.90;;;5.60;;
80675;SDS011;70041;46.088;18.268;2023-06-10T03:07:53;10.63;;;5.70;;
80675;SDS011;70041;46.088;18.268;2023-06-10T03:10:18;9.93;;;5.93;;
80675;SDS011;70041;46.088;18.268;2023-06-10T03:12:44;10.10;;;6.00;;
80675;SDS011;70041;46.088;18.268;2023-06-10T03:15:09;11.70;;;6.57;;
80675;SDS011;70041;46.088;18.268;2023-06-10T03:17:35;14.30;;;6.40;;
80675;SDS011;70041;46.088;18.268;2023-06-10T03:20:00;13.10;;;6.33;;
80675;SDS011;70041;46.088;18.268;2023-06-10T03:22:25;11.87;;;6.60;;
80675;SDS011;70041;46.088;18.268;2023-06-10T03:24:51;11.37;;;6.50;;
80675;SDS011;70041;46.088;18.268;2023-06-10T03:27:16;12.07;;;5.70;;
80675;SDS011;70041;46.088;18.268;2023-06-10T03:29:42;12.03;;;5.37;;
80675;SDS011;70041;46.088;18.268;2023-06-10T03:32:08;10.95;;;5.93;;
80675;SDS011;70041;46.088;18.268;2023-06-10T03:34:33;10.20;;;5.67;;
80675;SDS011;70041;46.088;18.268;2023-06-10T03:36:59;10.80;;;5.50;;
80675;SDS011;70041;46.088;18.268;2023-06-10T03:39:25;13.13;;;6.15;;
80675;SDS011;70041;46.088;18.268;2023-06-10T03:41:53;10.20;;;5.97;;
80675;SDS011;70041;46.088;18.268;2023-06-10T03:44:19;10.98;;;6.20;;
80675;SDS011;70041;46.088;18.268;2023-06-10T03:46:45;9.90;;;5.50;;
80675;SDS011;70041;46.088;18.268;2023-06-10T03:49:10;10.93;;;5.97;;
80675;SDS011;70041;46.088;18.268;2023-06-10T03:51:36;10.73;;;5.57;;
80675;SDS011;70041;46.088;18.268;2023-06-10T03:54:02;10.40;;;5.67;;
80675;SDS011;70041;46.088;18.268;2023-06-10T03:56:28;10.73;;;5.95;;
80675;SDS011;70041;46.088;18.268;2023-06-10T03:58:53;11.35;;;6.22;;
80675;SDS011;70041;46.088;18.268;2023-06-10T04:01:20;12.97;;;6.53;;
80675;SDS011;70041;46.088;18.268;2023-06-10T04:03:46;14.88;;;6.93;;
80675;SDS011;70041;46.088;18.268;2023-06-10T04:06:13;12.10;;;6.75;;
80675;SDS011;70041;46.088;18.268;2023-06-10T04:08:39;11.93;;;6.27;;
80675;SDS011;70041;46.088;18.268;2023-06-10T04:11:04;11.17;;;6.10;;
80675;SDS011;70041;46.088;18.268;2023-06-10T04:13:29;9.48;;;5.72;;
80675;SDS011;70041;46.088;18.268;2023-06-10T04:15:55;13.07;;;6.07;;
80675;SDS011;70041;46.088;18.268;2023-06-10T04:18:20;11.00;;;6.40;;
80675;SDS011;70041;46.088;18.268;2023-06-10T04:20:48;11.55;;;5.97;;
80675;SDS011;70041;46.088;18.268;2023-06-10T04:23:14;11.97;;;6.10;;
80675;SDS011;70041;46.088;18.268;2023-06-10T04:25:39;12.00;;;5.60;;
80675;SDS011;70041;46.088;18.268;2023-06-10T04:28:05;10.65;;;5.65;;
80675;SDS011;70041;46.088;18.268;2023-06-10T04:30:30;11.23;;;6.00;;
80675;SDS011;70041;46.088;18.268;2023-06-10T04:32:56;9.93;;;5.90;;
80675;SDS011;70041;46.088;18.268;2023-06-10T04:35:22;12.40;;;5.65;;
80675;SDS011;70041;46.088;18.268;2023-06-10T04:37:47;11.83;;;6.03;;
80675;SDS011;70041;46.088;18.268;2023-06-10T04:40:13;13.02;;;5.40;;
80675;SDS011;70041;46.088;18.268;2023-06-10T04:42:40;9.90;;;5.72;;
80675;SDS011;70041;46.088;18.268;2023-06-10T04:45:06;10.10;;;5.63;;
80675;SDS011;70041;46.088;18.268;2023-06-10T04:47:32;8.18;;;5.18;;
80675;SDS011;70041;46.088;18.268;2023-06-10T04:49:58;10.43;;;5.23;;
80675;SDS011;70041;46.088;18.268;2023-06-10T04:52:24;12.77;;;5.80;;
80675;SDS011;70041;46.088;18.268;2023-06-10T04:54:50;9.90;;;5.43;;
80675;SDS011;70041;46.088;18.268;2023-06-10T04:57:15;9.80;;;5.87;;
80675;SDS011;70041;46.088;18.268;2023-06-10T04:59:40;10.38;;;5.80;;
80675;SDS011;70041;46.088;18.268;2023-06-10T05:02:06;9.30;;;4.63;;
80675;SDS011;70041;46.088;18.268;2023-06-10T05:04:31;10.37;;;5.00;;
80675;SDS011;70041;46.088;18.268;2023-06-10T05:06:57;11.90;;;5.47;;
80675;SDS011;70041;46.088;18.268;2023-06-10T05:09:22;8.70;;;4.60;;
80675;SDS011;70041;46.088;18.268;2023-06-10T05:11:48;10.80;;;5.37;;
80675;SDS011;70041;46.088;18.268;2023-06-10T05:14:13;11.57;;;5.20;;
80675;SDS011;70041;46.088;18.268;2023-06-10T05:16:41;8.75;;;4.60;;
80675;SDS011;70041;46.088;18.268;2023-06-10T05:19:07;10.45;;;5.10;;
80675;SDS011;70041;46.088;18.268;2023-06-10T05:21:33;8.80;;;4.83;;
80675;SDS011;70041;46.088;18.268;2023-06-10T05:23:58;11.60;;;5.20;;
80675;SDS011;70041;46.088;18.268;2023-06-10T05:26:24;10.63;;;5.80;;
80675;SDS011;70041;46.088;18.268;2023-06-10T05:28:50;11.32;;;5.55;;
80675;SDS011;70041;46.088;18.268;2023-06-10T05:31:15;10.47;;;5.50;;
80675;SDS011;70041;46.088;18.268;2023-06-10T05:33:41;10.77;;;5.32;;
80675;SDS011;70041;46.088;18.268;2023-06-10T05:36:06;13.23;;;5.77;;
80675;SDS011;70041;46.088;18.268;2023-06-10T05:38:31;11.70;;;5.97;;
80675;SDS011;70041;46.088;18.268;2023-06-10T05:40:57;9.43;;;5.47;;
80675;SDS011;70041;46.088;18.268;2023-06-10T05:43:23;10.73;;;5.68;;
80675;SDS011;70041;46.088;18.268;2023-06-10T05:45:49;10.33;;;5.63;;
80675;SDS011;70041;46.088;18.268;2023-06-10T05:48:14;11.13;;;5.53;;
80675;SDS011;70041;46.088;18.268;2023-06-10T05:50:40;12.95;;;5.68;;
80675;SDS011;70041;46.088;18.268;2023-06-10T05:53:07;11.40;;;5.90;;
80675;SDS011;70041;46.088;18.268;2023-06-10T05:55:40;10.25;;;5.93;;
80675;SDS011;70041;46.088;18.268;2023-06-10T05:58:08;10.90;;;6.00;;
80675;SDS011;70041;46.088;18.268;2023-06-10T06:00:34;12.43;;;6.28;;
80675;SDS011;70041;46.088;18.268;2023-06-10T06:03:00;10.90;;;6.27;;
80675;SDS011;70041;46.088;18.268;2023-06-10T06:05:25;11.23;;;6.03;;
80675;SDS011;70041;46.088;18.268;2023-06-10T06:07:51;11.77;;;5.40;;
80675;SDS011;70041;46.088;18.268;2023-06-10T06:10:17;9.80;;;5.13;;
80675;SDS011;70041;46.088;18.268;2023-06-10T06:12:43;10.23;;;5.38;;
80675;SDS011;70041;46.088;18.268;2023-06-10T06:15:08;9.07;;;4.27;;
80675;SDS011;70041;46.088;18.268;2023-06-10T06:17:35;8.27;;;4.32;;
80675;SDS011;70041;46.088;18.268;2023-06-10T06:20:01;7.93;;;4.00;;
80675;SDS011;70041;46.088;18.268;2023-06-10T06:22:27;7.88;;;3.50;;
80675;SDS011;70041;46.088;18.268;2023-06-10T06:24:52;7.23;;;3.70;;
80675;SDS011;70041;46.088;18.268;2023-06-10T06:27:17;9.33;;;3.50;;
80675;SDS011;70041;46.088;18.268;2023-06-10T06:29:43;6.97;;;3.40;;
80675;SDS011;70041;46.088;18.268;2023-06-10T06:32:08;7.63;;;3.43;;
80675;SDS011;70041;46.088;18.268;2023-06-10T06:34:34;7.23;;;3.37;;
80675;SDS011;70041;46.088;18.268;2023-06-10T06:36:59;7.67;;;3.30;;
80675;SDS011;70041;46.088;18.268;2023-06-10T06:39:24;7.60;;;3.47;;
80675;SDS011;70041;46.088;18.268;2023-06-10T06:41:50;9.43;;;3.17;;
80675;SDS011;70041;46.088;18.268;2023-06-10T06:44:16;7.20;;;2.63;;
80675;SDS011;70041;46.088;18.268;2023-06-10T06:46:41;6.87;;;3.03;;
80675;SDS011;70041;46.088;18.268;2023-06-10T06:49:06;6.63;;;3.03;;
80675;SDS011;70041;46.088;18.268;2023-06-10T06:51:32;6.13;;;2.90;;
80675;SDS011;70041;46.088;18.268;2023-06-10T06:53:57;7.03;;;3.03;;
80675;SDS011;70041;46.088;18.268;2023-06-10T06:56:24;7.28;;;3.30;;
80675;SDS011;70041;46.088;18.268;2023-06-10T06:58:50;6.35;;;3.28;;
80675;SDS011;70041;46.088;18.268;2023-06-10T07:01:15;6.57;;;2.90;;
80675;SDS011;70041;46.088;18.268;2023-06-10T07:03:41;6.20;;;2.83;;
80675;SDS011;70041;46.088;18.268;2023-06-10T07:06:06;6.95;;;2.80;;
80675;SDS011;70041;46.088;18.268;2023-06-10T07:08:31;5.53;;;2.30;;
80675;SDS011;70041;46.088;18.268;2023-06-10T07:10:57;5.80;;;2.63;;
80675;SDS011;70041;46.088;18.268;2023-06-10T07:13:22;5.93;;;2.57;;
80675;SDS011;70041;46.088;18.268;2023-06-10T07:15:48;6.47;;;3.00;;
80675;SDS011;70041;46.088;18.268;2023-06-10T07:18:14;7.63;;;2.80;;
80675;SDS011;70041;46.088;18.268;2023-06-10T07:20:41;7.17;;;2.43;;
80675;SDS011;70041;46.088;18.268;2023-06-10T07:23:06;6.07;;;2.75;;
80675;SDS011;70041;46.088;18.268;2023-06-10T07:25:32;5.97;;;2.70;;
80675;SDS011;70041;46.088;18.268;2023-06-10T07:27:57;5.00;;;2.17;;
80675;SDS011;70041;46.088;18.268;2023-06-10T07:30:22;6.43;;;2.90;;
80675;SDS011;70041;46.088;18.268;2023-06-10T07:32:48;6.93;;;2.90;;
80675;SDS011;70041;46.088;18.268;2023-06-10T07:35:13;6.30;;;3.10;;
80675;SDS011;70041;46.088;18.268;2023-06-10T07:37:39;6.50;;;2.77;;
80675;SDS011;70041;46.088;18.268;2023-06-10T07:40:04;6.87;;;2.63;;
80675;SDS011;70041;46.088;18.268;2023-06-10T07:42:31;5.35;;;2.55;;
80675;SDS011;70041;46.088;18.268;2023-06-10T07:44:59;5.78;;;2.78;;
80675;SDS011;70041;46.088;18.268;2023-06-10T07:47:24;6.27;;;2.53;;
80675;SDS011;70041;46.088;18.268;2023-06-10T07:49:50;6.10;;;2.73;;
80675;SDS011;70041;46.088;18.268;2023-06-10T07:52:15;5.97;;;3.00;;
80675;SDS011;70041;46.088;18.268;2023-06-10T07:54:41;5.90;;;2.90;;
80675;SDS011;70041;46.088;18.268;2023-06-10T07:57:06;5.70;;;2.87;;
80675;SDS011;70041;46.088;18.268;2023-06-10T07:59:32;6.00;;;2.53;;
80675;SDS011;70041;46.088;18.268;2023-06-10T08:01:58;6.10;;;2.70;;
80675;SDS011;70041;46.088;18.268;2023-06-10T08:04:23;6.80;;;2.90;;
80675;SDS011;70041;46.088;18.268;2023-06-10T08:06:49;7.10;;;2.72;;
80675;SDS011;70041;46.088;18.268;2023-06-10T08:09:14;6.00;;;3.00;;
80675;SDS011;70041;46.088;18.268;2023-06-10T08:11:39;6.30;;;3.00;;
80675;SDS011;70041;46.088;18.268;2023-06-10T08:14:05;6.32;;;2.55;;
80675;SDS011;70041;46.088;18.268;2023-06-10T08:16:31;6.23;;;2.83;;
80675;SDS011;70041;46.088;18.268;2023-06-10T08:18:56;7.50;;;3.00;;
80675;SDS011;70041;46.088;18.268;2023-06-10T08:21:21;6.73;;;2.93;;
80675;SDS011;70041;46.088;18.268;2023-06-10T08:23:47;5.60;;;2.67;;
80675;SDS011;70041;46.088;18.268;2023-06-10T08:26:12;8.37;;;2.97;;
80675;SDS011;70041;46.088;18.268;2023-06-10T08:28:38;6.70;;;2.73;;
80675;SDS011;70041;46.088;18.268;2023-06-10T08:31:03;6.80;;;3.00;;
80675;SDS011;70041;46.088;18.268;2023-06-10T08:33:28;6.07;;;2.70;;
80675;SDS011;70041;46.088;18.268;2023-06-10T08:35:54;6.18;;;2.88;;
80675;SDS011;70041;46.088;18.268;2023-06-10T08:38:19;5.50;;;2.60;;
80675;SDS011;70041;46.088;18.268;2023-06-10T08:40:45;6.67;;;3.10;;
80675;SDS011;70041;46.088;18.268;2023-06-10T08:43:14;6.57;;;3.17;;
80675;SDS011;70041;46.088;18.268;2023-06-10T08:45:45;5.97;;;2.80;;
80675;SDS011;70041;46.088;18.268;2023-06-10T08:48:14;6.30;;;3.10;;
80675;SDS011;70041;46.088;18.268;2023-06-10T08:50:41;6.57;;;3.25;;
80675;SDS011;70041;46.088;18.268;2023-06-10T08:53:06;6.37;;;3.10;;
80675;SDS011;70041;46.088;18.268;2023-06-10T08:55:33;6.40;;;3.28;;
80675;SDS011;70041;46.088;18.268;2023-06-10T08:58:01;7.60;;;3.47;;
80675;SDS011;70041;46.088;18.268;2023-06-10T09:00:28;7.28;;;3.42;;
80675;SDS011;70041;46.088;18.268;2023-06-10T09:02:54;6.53;;;3.30;;
80675;SDS011;70041;46.088;18.268;2023-06-10T09:05:21;6.17;;;2.63;;
80675;SDS011;70041;46.088;18.268;2023-06-10T09:07:47;6.03;;;3.10;;
80675;SDS011;70041;46.088;18.268;2023-06-10T09:10:13;6.72;;;2.90;;
80675;SDS011;70041;46.088;18.268;2023-06-10T09:12:39;6.17;;;3.10;;
80675;SDS011;70041;46.088;18.268;2023-06-10T09:15:05;5.90;;;2.80;;
80675;SDS011;70041;46.088;18.268;2023-06-10T09:17:31;6.45;;;2.85;;
80675;SDS011;70041;46.088;18.268;2023-06-10T09:19:57;6.13;;;2.67;;
80675;SDS011;70041;46.088;18.268;2023-06-10T09:22:24;5.25;;;2.33;;
80675;SDS011;70041;46.088;18.268;2023-06-10T09:24:51;6.68;;;2.67;;
80675;SDS011;70041;46.088;18.268;2023-06-10T09:27:29;6.15;;;2.60;;
80675;SDS011;70041;46.088;18.268;2023-06-10T09:29:55;5.43;;;2.60;;
80675;SDS011;70041;46.088;18.268;2023-06-10T09:32:22;6.20;;;2.63;;
80675;SDS011;70041;46.088;18.268;2023-06-10T09:37:37;6.40;;;3.00;;
80675;SDS011;70041;46.088;18.268;2023-06-10T09:40:05;6.22;;;2.70;;
80675;SDS011;70041;46.088;18.268;2023-06-10T09:42:33;7.10;;;2.70;;
80675;SDS011;70041;46.088;18.268;2023-06-10T09:45:00;6.47;;;3.10;;
80675;SDS011;70041;46.088;18.268;2023-06-10T09:47:27;6.97;;;2.50;;
80675;SDS011;70041;46.088;18.268;2023-06-10T09:49:52;5.20;;;2.70;;
80675;SDS011;70041;46.088;18.268;2023-06-10T09:52:24;5.47;;;2.45;;
80675;SDS011;70041;46.088;18.268;2023-06-10T09:54:51;6.35;;;2.60;;
80675;SDS011;70041;46.088;18.268;2023-06-10T09:57:17;5.47;;;2.58;;
80675;SDS011;70041;46.088;18.268;2023-06-10T09:59:44;5.53;;;2.53;;
80675;SDS011;70041;46.088;18.268;2023-06-10T10:02:17;6.43;;;2.88;;
80675;SDS011;70041;46.088;18.268;2023-06-10T10:04:43;6.38;;;2.58;;
80675;SDS011;70041;46.088;18.268;2023-06-10T10:07:10;5.93;;;2.47;;
80675;SDS011;70041;46.088;18.268;2023-06-10T10:09:36;6.43;;;2.42;;
80675;SDS011;70041;46.088;18.268;2023-06-10T10:12:04;5.77;;;2.43;;
80675;SDS011;70041;46.088;18.268;2023-06-10T10:14:43;5.75;;;2.40;;
80675;SDS011;70041;46.088;18.268;2023-06-10T10:17:12;6.20;;;2.33;;
80675;SDS011;70041;46.088;18.268;2023-06-10T10:19:46;5.70;;;2.50;;
80675;SDS011;70041;46.088;18.268;2023-06-10T10:22:18;5.75;;;2.67;;
80675;SDS011;70041;46.088;18.268;2023-06-10T10:24:50;6.03;;;2.63;;
80675;SDS011;70041;46.088;18.268;2023-06-10T10:27:18;6.18;;;2.50;;
80675;SDS011;70041;46.088;18.268;2023-06-10T10:29:51;5.70;;;2.70;;
80675;SDS011;70041;46.088;18.268;2023-06-10T10:32:18;5.93;;;2.22;;
80675;SDS011;70041;46.088;18.268;2023-06-10T10:34:56;5.63;;;2.42;;
80675;SDS011;70041;46.088;18.268;2023-06-10T10:37:31;5.00;;;2.37;;
80675;SDS011;70041;46.088;18.268;2023-06-10T10:39:56;6.72;;;2.78;;
80675;SDS011;70041;46.088;18.268;2023-06-10T10:42:23;5.60;;;2.63;;
80675;SDS011;70041;46.088;18.268;2023-06-10T10:44:48;6.00;;;2.77;;
80675;SDS011;70041;46.088;18.268;2023-06-10T10:47:15;5.28;;;2.55;;
80675;SDS011;70041;46.088;18.268;2023-06-10T10:49:43;6.20;;;2.47;;
80675;SDS011;70041;46.088;18.268;2023-06-10T10:52:12;5.93;;;2.38;;
80675;SDS011;70041;46.088;18.268;2023-06-10T10:54:39;4.83;;;1.90;;
80675;SDS011;70041;46.088;18.268;2023-06-10T11:02:18;6.30;;;2.60;;
80675;SDS011;70041;46.088;18.268;2023-06-10T11:04:56;6.38;;;2.67;;
80675;SDS011;70041;46.088;18.268;2023-06-10T11:07:24;6.30;;;2.40;;
80675;SDS011;70041;46.088;18.268;2023-06-10T11:12:26;5.80;;;2.70;;
80675;SDS011;70041;46.088;18.268;2023-06-10T11:15:04;6.70;;;2.80;;
80675;SDS011;70041;46.088;18.268;2023-06-10T11:17:29;5.93;;;2.70;;
80675;SDS011;70041;46.088;18.268;2023-06-10T11:19:55;5.72;;;2.75;;
80675;SDS011;70041;46.088;18.268;2023-06-10T11:22:23;6.90;;;2.60;;
80675;SDS011;70041;46.088;18.268;2023-06-10T11:24:49;5.40;;;2.80;;
80675;SDS011;70041;46.088;18.268;2023-06-10T11:27:18;7.70;;;2.58;;
80675;SDS011;70041;46.088;18.268;2023-06-10T11:29:55;6.43;;;2.90;;
80675;SDS011;70041;46.088;18.268;2023-06-10T11:32:42;5.22;;;2.60;;
80675;SDS011;70041;46.088;18.268;2023-06-10T11:35:08;5.25;;;2.90;;
80675;SDS011;70041;46.088;18.268;2023-06-10T11:37:34;5.27;;;2.20;;
80675;SDS011;70041;46.088;18.268;2023-06-10T11:39:59;7.28;;;2.72;;
80675;SDS011;70041;46.088;18.268;2023-06-10T11:42:25;5.93;;;2.67;;
80675;SDS011;70041;46.088;18.268;2023-06-10T11:44:51;5.80;;;2.42;;
80675;SDS011;70041;46.088;18.268;2023-06-10T11:47:18;5.60;;;2.60;;
80675;SDS011;70041;46.088;18.268;2023-06-10T11:49:44;6.30;;;2.67;;
80675;SDS011;70041;46.088;18.268;2023-06-10T11:52:10;5.32;;;2.50;;
80675;SDS011;70041;46.088;18.268;2023-06-10T11:54:37;5.80;;;2.40;;
80675;SDS011;70041;46.088;18.268;2023-06-10T11:57:03;6.80;;;2.70;;
80675;SDS011;70041;46.088;18.268;2023-06-10T11:59:31;5.47;;;2.28;;
80675;SDS011;70041;46.088;18.268;2023-06-10T12:01:57;6.68;;;3.05;;
80675;SDS011;70041;46.088;18.268;2023-06-10T12:04:23;7.05;;;3.05;;
80675;SDS011;70041;46.088;18.268;2023-06-10T12:06:52;5.30;;;2.53;;
80675;SDS011;70041;46.088;18.268;2023-06-10T12:09:23;5.20;;;2.40;;
80675;SDS011;70041;46.088;18.268;2023-06-10T12:12:00;6.78;;;2.60;;
80675;SDS011;70041;46.088;18.268;2023-06-10T12:17:22;5.95;;;3.00;;
80675;SDS011;70041;46.088;18.268;2023-06-10T12:19:57;6.70;;;3.10;;
80675;SDS011;70041;46.088;18.268;2023-06-10T12:22:23;5.63;;;2.50;;
80675;SDS011;70041;46.088;18.268;2023-06-10T12:25:00;7.53;;;2.90;;
80675;SDS011;70041;46.088;18.268;2023-06-10T12:27:31;5.88;;;2.78;;
80675;SDS011;70041;46.088;18.268;2023-06-10T12:29:58;7.07;;;2.83;;
80675;SDS011;70041;46.088;18.268;2023-06-10T12:35:06;7.38;;;4.10;;
80675;SDS011;70041;46.088;18.268;2023-06-10T12:37:32;5.38;;;2.80;;
80675;SDS011;70041;46.088;18.268;2023-06-10T12:40:02;5.90;;;2.65;;
80675;SDS011;70041;46.088;18.268;2023-06-10T12:42:29;6.03;;;2.83;;
80675;SDS011;70041;46.088;18.268;2023-06-10T12:44:56;5.50;;;2.43;;
80675;SDS011;70041;46.088;18.268;2023-06-10T12:47:32;5.63;;;2.85;;
80675;SDS011;70041;46.088;18.268;2023-06-10T12:50:00;5.70;;;2.55;;
80675;SDS011;70041;46.088;18.268;2023-06-10T12:52:26;6.15;;;2.90;;
80675;SDS011;70041;46.088;18.268;2023-06-10T12:54:53;5.60;;;2.60;;
80675;SDS011;70041;46.088;18.268;2023-06-10T12:57:19;6.72;;;2.88;;
80675;SDS011;70041;46.088;18.268;2023-06-10T12:59:45;5.97;;;2.53;;
80675;SDS011;70041;46.088;18.268;2023-06-10T13:02:15;5.90;;;2.80;;
80675;SDS011;70041;46.088;18.268;2023-06-10T13:04:41;6.53;;;2.93;;
80675;SDS011;70041;46.088;18.268;2023-06-10T13:07:09;6.78;;;2.80;;
80675;SDS011;70041;46.088;18.268;2023-06-10T13:09:35;6.20;;;3.10;;
80675;SDS011;70041;46.088;18.268;2023-06-10T13:12:01;8.67;;;2.90;;
80675;SDS011;70041;46.088;18.268;2023-06-10T13:14:27;5.68;;;2.50;;
80675;SDS011;70041;46.088;18.268;2023-06-10T13:16:52;5.93;;;2.72;;
80675;SDS011;70041;46.088;18.268;2023-06-10T13:19:19;5.13;;;2.50;;
80675;SDS011;70041;46.088;18.268;2023-06-10T13:21:46;6.23;;;2.83;;
80675;SDS011;70041;46.088;18.268;2023-06-10T13:24:12;5.32;;;2.60;;
80675;SDS011;70041;46.088;18.268;2023-06-10T13:26:37;5.50;;;2.57;;
80675;SDS011;70041;46.088;18.268;2023-06-10T13:29:03;6.80;;;2.57;;
80675;SDS011;70041;46.088;18.268;2023-06-10T13:31:29;6.68;;;2.80;;
80675;SDS011;70041;46.088;18.268;2023-06-10T13:33:54;5.40;;;2.40;;
80675;SDS011;70041;46.088;18.268;2023-06-10T13:36:20;5.37;;;2.50;;
80675;SDS011;70041;46.088;18.268;2023-06-10T13:38:45;5.83;;;2.70;;
80675;SDS011;70041;46.088;18.268;2023-06-10T13:41:12;7.35;;;2.83;;
80675;SDS011;70041;46.088;18.268;2023-06-10T13:43:38;5.20;;;2.50;;
80675;SDS011;70041;46.088;18.268;2023-06-10T13:46:03;6.80;;;3.10;;
80675;SDS011;70041;46.088;18.268;2023-06-10T13:48:29;6.30;;;2.87;;
80675;SDS011;70041;46.088;18.268;2023-06-10T13:50:54;6.57;;;3.07;;
80675;SDS011;70041;46.088;18.268;2023-06-10T13:53:19;5.37;;;2.60;;
80675;SDS011;70041;46.088;18.268;2023-06-10T13:55:45;6.13;;;2.88;;
80675;SDS011;70041;46.088;18.268;2023-06-10T13:58:10;7.53;;;3.13;;
80675;SDS011;70041;46.088;18.268;2023-06-10T14:00:36;6.00;;;2.80;;
80675;SDS011;70041;46.088;18.268;2023-06-10T14:03:01;5.33;;;3.00;;
80675;SDS011;70041;46.088;18.268;2023-06-10T14:05:28;5.57;;;2.80;;
80675;SDS011;70041;46.088;18.268;2023-06-10T14:07:53;5.83;;;2.70;;
80675;SDS011;70041;46.088;18.268;2023-06-10T14:10:19;6.93;;;2.60;;
80675;SDS011;70041;46.088;18.268;2023-06-10T14:12:44;5.90;;;2.80;;
80675;SDS011;70041;46.088;18.268;2023-06-10T14:15:09;5.27;;;2.63;;
80675;SDS011;70041;46.088;18.268;2023-06-10T14:17:35;5.55;;;2.67;;
80675;SDS011;70041;46.088;18.268;2023-06-10T14:20:00;5.13;;;2.33;;
80675;SDS011;70041;46.088;18.268;2023-06-10T14:22:26;6.87;;;2.70;;
80675;SDS011;70041;46.088;18.268;2023-06-10T14:24:51;6.43;;;2.37;;
80675;SDS011;70041;46.088;18.268;2023-06-10T14:27:17;6.00;;;2.60;;
80675;SDS011;70041;46.088;18.268;2023-06-10T14:29:42;6.30;;;3.00;;
80675;SDS011;70041;46.088;18.268;2023-06-10T14:32:07;6.50;;;3.13;;
80675;SDS011;70041;46.088;18.268;2023-06-10T14:34:33;6.28;;;3.03;;
80675;SDS011;70041;46.088;18.268;2023-06-10T14:37:00;5.80;;;2.70;;
80675;SDS011;70041;46.088;18.268;2023-06-10T14:39:25;5.63;;;2.67;;
80675;SDS011;70041;46.088;18.268;2023-06-10T14:41:51;5.70;;;2.53;;
80675;SDS011;70041;46.088;18.268;2023-06-10T14:44:19;6.22;;;2.55;;
80675;SDS011;70041;46.088;18.268;2023-06-10T14:46:45;5.30;;;2.63;;